Time;durP1;ratioP1;P1;durP2;ratioP2;P2;SDS_P1;SDS_P2;PMS_P1;PMS_P2;Temp;Humidity;BMP_temperature;BMP_pressure;BME280_temperature;BME280_humidity;BME280_pressure;Samples;Min_cycle;Max_cycle;Signal;HPM_P1;HPM_P2
2022/05/01 00:02:15;;;;;;;19.88;8.27;;;;;;;1.33;51.41;100750.75;5072962;28;20500;-80
2022/05/01 00:04:41;;;;;;;24.92;8.32;;;;;;;1.35;52.00;100747.44;5048470;28;20047;-78
2022/05/01 00:07:10;;;;;;;18.73;8.50;;;;;;;1.28;51.71;100730.06;5017017;28;20051;-79
2022/05/01 02:30:16;;;;;;;29.05;11.25;;;;;;;1.07;51.77;100750.47;5035748;28;20115;-79
2022/05/01 02:32:42;;;;;;;26.73;10.77;;;;;;;1.13;52.15;100747.31;5017406;28;20129;-78
2022/05/01 02:35:10;;;;;;;25.17;10.95;;;;;;;1.37;52.68;100770.59;5036650;28;20040;-77
2022/05/01 02:37:36;;;;;;;24.63;11.57;;;;;;;1.46;52.40;100776.13;5034585;28;20037;-77
2022/05/01 02:40:04;;;;;;;24.33;10.43;;;;;;;1.44;51.79;100766.63;5005401;28;20041;-78
2022/05/01 02:42:31;;;;;;;24.48;9.77;;;;;;;1.53;52.42;100763.56;5019307;28;20033;-80
2022/05/01 02:44:59;;;;;;;23.17;9.70;;;;;;;1.66;52.75;100776.09;4997418;28;20117;-78
2022/05/01 02:47:25;;;;;;;31.27;11.30;;;;;;;1.73;52.85;100774.69;5012969;28;20041;-79
2022/05/01 02:49:51;;;;;;;24.08;10.90;;;;;;;1.77;52.55;100769.75;5034840;28;20033;-76
2022/05/01 02:52:17;;;;;;;24.20;10.70;;;;;;;1.92;53.00;100774.66;5034649;28;20547;-79
2022/05/01 02:54:43;;;;;;;19.40;9.43;;;;;;;2.08;52.57;100778.75;5025827;28;20045;-80
2022/05/01 02:57:09;;;;;;;21.40;9.93;;;;;;;2.08;52.28;100765.03;5037086;28;20040;-78
2022/05/01 02:59:35;;;;;;;19.25;9.43;;;;;;;2.23;52.83;100780.19;5023163;28;20625;-77
2022/05/01 03:02:01;;;;;;;28.33;10.55;;;;;;;2.33;52.88;100777.16;5025979;28;20029;-77
2022/05/01 03:04:27;;;;;;;22.42;9.18;;;;;;;2.45;52.82;100781.06;5044524;28;20465;-78
2022/05/01 03:06:53;;;;;;;24.63;9.70;;;;;;;2.56;52.90;100782.34;5030307;28;20090;-78
2022/05/01 03:09:19;;;;;;;22.77;9.48;;;;;;;2.64;52.98;100780.97;5029153;28;20049;-77
2022/05/01 03:11:45;;;;;;;21.80;9.02;;;;;;;2.76;52.84;100783.13;5044145;28;20045;-76
2022/05/01 03:14:11;;;;;;;20.80;8.85;;;;;;;2.83;52.58;100758.53;5029617;28;20511;-79
2022/05/01 03:16:36;;;;;;;18.13;8.77;;;;;;;2.93;52.17;100758.06;5029188;28;20046;-76
2022/05/01 03:24:32;;;;;;;16.92;8.30;;;;;;;3.33;52.31;100757.78;5044493;28;20496;-78
2022/05/01 03:26:58;;;;;;;17.98;7.75;;;;;;;3.54;51.85;100771.41;4997090;28;20041;-77
2022/05/01 03:29:24;;;;;;;14.50;8.35;;;;;;;3.61;51.51;100757.03;5028240;28;20102;-77
2022/05/01 03:31:50;;;;;;;13.85;7.20;;;;;;;3.96;51.18;100779.69;5029540;28;20118;-78
2022/05/01 03:34:18;;;;;;;20.90;8.55;;;;;;;4.17;51.29;100774.38;5012315;28;20044;-78
2022/05/01 03:36:47;;;;;;;21.88;7.60;;;;;;;4.39;50.59;100786.25;5041376;28;20041;-79
2022/05/01 03:39:15;;;;;;;13.57;7.57;;;;;;;4.52;50.07;100782.34;5051106;28;20504;-77
2022/05/01 03:41:42;;;;;;;18.90;8.93;;;;;;;4.60;49.98;100780.91;5024331;28;20036;-78
2022/05/01 03:44:08;;;;;;;16.60;7.85;;;;;;;4.78;49.58;100783.16;5042889;28;20080;-80
2022/05/01 03:46:38;;;;;;;15.73;7.95;;;;;;;4.81;49.20;100760.03;5009723;28;20040;-79
2022/05/01 03:49:10;;;;;;;18.88;8.00;;;;;;;5.10;48.84;100772.94;5034845;28;20043;-79
2022/05/01 03:51:37;;;;;;;16.27;7.88;;;;;;;5.33;48.03;100782.16;4994161;28;20044;-78
2022/05/01 03:54:05;;;;;;;18.55;7.85;;;;;;;5.31;47.70;100751.16;5030505;28;20131;-76
2022/05/01 03:56:33;;;;;;;16.25;7.68;;;;;;;5.71;47.89;100780.63;5043478;28;20041;-79
2022/05/01 03:58:59;;;;;;;16.60;7.45;;;;;;;5.96;47.46;100775.25;5014718;28;20036;-77
2022/05/01 04:01:26;;;;;;;20.67;7.45;;;;;;;6.09;46.05;100769.56;5042672;28;20037;-78
2022/05/01 04:03:53;;;;;;;14.40;7.00;;;;;;;6.23;45.93;100757.00;5024417;28;20399;-79
2022/05/01 04:06:19;;;;;;;14.45;6.63;;;;;;;6.53;45.73;100776.63;5039962;28;20427;-79
2022/05/01 04:08:45;;;;;;;13.95;6.47;;;;;;;6.58;44.38;100751.75;5012203;28;20063;-80
2022/05/01 04:11:11;;;;;;;17.40;5.95;;;;;;;6.89;44.24;100767.09;5023903;28;20090;-77
2022/05/01 04:13:37;;;;;;;17.48;6.47;;;;;;;7.17;43.93;100770.25;5024948;28;20033;-79
2022/05/01 04:16:03;;;;;;;10.48;6.07;;;;;;;7.37;42.99;100766.34;5023355;28;20037;-78
2022/05/01 04:18:31;;;;;;;14.18;5.78;;;;;;;7.45;43.42;100750.97;5042181;28;20554;-78
2022/05/01 04:21:01;;;;;;;13.07;5.35;;;;;;;7.74;42.58;100767.88;5005806;28;20075;-77
2022/05/01 04:23:27;;;;;;;10.10;5.38;;;;;;;7.94;41.62;100768.25;5043849;28;20405;-80
2022/05/01 04:25:56;;;;;;;12.48;5.60;;;;;;;8.09;41.61;100770.25;5011289;28;20059;-80
2022/05/01 04:28:22;;;;;;;15.88;5.97;;;;;;;8.27;40.97;100772.28;5012469;28;20164;-78
2022/05/01 04:30:50;;;;;;;10.00;4.60;;;;;;;8.33;40.92;100743.81;5041632;28;20156;-77
2022/05/01 04:33:16;;;;;;;13.50;5.55;;;;;;;8.62;40.33;100769.38;5015974;28;20041;-78
2022/05/01 04:35:45;;;;;;;7.63;4.70;;;;;;;8.72;39.78;100766.03;5044945;28;20040;-78
2022/05/01 04:38:17;;;;;;;8.57;4.72;;;;;;;8.84;39.47;100777.47;5039778;28;20524;-78
2022/05/01 04:40:48;;;;;;;10.13;4.78;;;;;;;9.07;39.40;100774.31;5028632;28;20073;-77
2022/05/01 04:43:19;;;;;;;12.40;4.77;;;;;;;9.25;38.79;100774.53;5031354;28;20036;-78
2022/05/01 04:45:48;;;;;;;7.88;4.10;;;;;;;9.35;38.13;100770.31;5005500;28;20287;-79
2022/05/01 04:48:15;;;;;;;6.13;3.92;;;;;;;9.47;38.00;100754.00;5013212;28;20080;-77
2022/05/01 04:50:41;;;;;;;14.75;4.07;;;;;;;9.53;37.09;100738.47;5014277;28;20083;-76
2022/05/01 04:53:12;;;;;;;8.68;4.22;;;;;;;9.85;36.34;100773.44;5024481;28;20045;-77
2022/05/01 04:55:39;;;;;;;8.15;4.60;;;;;;;9.81;36.31;100743.97;5023804;28;20057;-77
2022/05/01 04:58:05;;;;;;;9.85;4.85;;;;;;;10.00;35.93;100738.91;5011609;28;20485;-79
2022/05/01 05:00:32;;;;;;;7.93;4.25;;;;;;;10.32;35.20;100757.38;5042605;28;20566;-79
2022/05/01 05:02:58;;;;;;;9.63;4.13;;;;;;;10.61;34.82;100763.66;5042159;28;20089;-77
2022/05/01 05:05:26;;;;;;;13.57;4.95;;;;;;;10.74;34.25;100769.81;5029571;28;20037;-77
2022/05/01 05:07:53;;;;;;;9.90;4.47;;;;;;;10.83;34.02;100773.34;5003335;28;20135;-78
2022/05/01 05:10:19;;;;;;;9.65;4.15;;;;;;;10.84;33.93;100753.38;5041749;28;20067;-77
2022/05/01 05:12:48;;;;;;;12.80;4.65;;;;;;;11.20;33.54;100769.16;5027210;28;20053;-79
2022/05/01 05:15:20;;;;;;;9.93;4.10;;;;;;;11.21;33.38;100763.97;5039639;28;21517;-79
2022/05/01 05:17:46;;;;;;;10.10;4.03;;;;;;;11.35;32.98;100768.34;5042150;28;20139;-78
2022/05/01 05:20:13;;;;;;;9.05;3.65;;;;;;;11.56;32.69;100772.78;5021657;28;20048;-77
2022/05/01 05:22:42;;;;;;;11.82;4.25;;;;;;;12.04;32.57;100768.50;5042063;28;20116;-78
2022/05/01 05:25:10;;;;;;;9.68;3.88;;;;;;;12.78;31.91;100758.88;5020965;28;20132;-78
2022/05/01 05:27:37;;;;;;;13.63;3.90;;;;;;;14.96;30.49;100766.13;5021724;28;20049;-78
2022/05/01 05:30:04;;;;;;;8.10;3.10;;;;;;;17.19;28.20;100759.94;4987931;28;20588;-76
2022/05/01 05:32:30;;;;;;;9.85;3.60;;;;;;;19.41;25.72;100762.25;5003061;28;20080;-78
2022/05/01 05:34:56;;;;;;;7.45;3.28;;;;;;;20.90;24.42;100745.00;5018736;28;20534;-78
2022/05/01 05:37:22;;;;;;;5.95;3.17;;;;;;;22.24;22.83;100747.72;5008610;28;20132;-80
2022/05/01 05:39:49;;;;;;;7.25;3.10;;;;;;;23.21;21.85;100737.25;5002617;28;20052;-76
2022/05/01 05:42:17;;;;;;;7.40;3.20;;;;;;;23.91;20.03;100733.94;4992489;28;20062;-77
2022/05/01 05:44:45;;;;;;;6.53;3.78;;;;;;;24.93;19.25;100726.03;5009367;28;20053;-78
2022/05/01 05:47:14;;;;;;;6.63;3.15;;;;;;;25.67;18.69;100721.03;4991142;28;20053;-78
2022/05/01 05:49:40;;;;;;;5.78;3.20;;;;;;;26.64;17.39;100729.56;5031855;28;20038;-79
2022/05/01 05:52:07;;;;;;;5.13;3.53;;;;;;;27.41;16.75;100729.19;5007563;28;20038;-79
2022/05/01 05:54:33;;;;;;;7.65;5.28;;;;;;;28.00;16.01;100725.38;5007382;28;20194;-78
2022/05/01 05:56:59;;;;;;;6.40;3.58;;;;;;;28.54;15.64;100719.03;4992329;28;20428;-79
2022/05/01 05:59:25;;;;;;;8.95;5.68;;;;;;;28.65;14.44;100717.38;5022513;28;20046;-80
2022/05/01 06:01:50;;;;;;;10.57;6.15;;;;;;;28.78;14.79;100714.72;5007725;28;20033;-78
2022/05/01 06:04:16;;;;;;;7.85;4.53;;;;;;;29.64;13.94;100712.09;5008343;28;20404;-78
2022/05/01 06:06:45;;;;;;;6.13;4.50;;;;;;;29.91;13.69;100719.88;5007316;28;20052;-79
2022/05/01 06:09:11;;;;;;;6.35;3.25;;;;;;;30.65;12.99;100706.16;5007494;28;20038;-78
2022/05/01 06:11:38;;;;;;;7.28;3.20;;;;;;;31.35;12.20;100721.22;5002748;28;20056;-78
2022/05/01 06:14:04;;;;;;;8.85;4.18;;;;;;;31.77;11.68;100709.72;5037024;28;20042;-80
2022/05/01 06:16:31;;;;;;;8.10;3.70;;;;;;;31.54;11.38;100710.66;5014239;28;20049;-78
2022/05/01 06:18:59;;;;;;;13.57;5.88;;;;;;;31.73;11.60;100701.06;5011713;28;20033;-78
2022/05/01 06:21:26;;;;;;;5.93;3.20;;;;;;;31.77;11.51;100720.50;5005926;28;20564;-79
2022/05/01 06:23:52;;;;;;;5.97;3.15;;;;;;;32.06;11.07;100701.00;4988692;28;20041;-78
2022/05/01 06:26:18;;;;;;;5.05;2.92;;;;;;;33.17;10.42;100693.13;4992029;28;20132;-77
2022/05/01 06:28:44;;;;;;;9.43;5.53;;;;;;;33.92;10.36;100692.63;5005677;28;20496;-77
2022/05/01 06:31:11;;;;;;;5.45;3.22;;;;;;;34.74;9.81;100676.72;5019497;28;20056;-80
2022/05/01 06:33:39;;;;;;;5.85;2.80;;;;;;;35.04;9.35;100692.78;5049526;28;20053;-79
2022/05/01 06:36:06;;;;;;;4.82;2.70;;;;;;;34.23;9.64;100690.53;5028010;28;20044;-78
2022/05/01 06:38:33;;;;;;;5.25;2.78;;;;;;;33.96;9.83;100696.72;5026924;28;20044;-77
2022/05/01 06:41:09;;;;;;;3.72;2.50;;;;;;;34.03;9.29;100678.94;5043062;28;20053;-80
2022/05/01 06:43:35;;;;;;;3.97;2.50;;;;;;;34.94;8.90;100649.56;5027787;28;20045;-81
2022/05/01 06:46:01;;;;;;;3.58;2.15;;;;;;;36.44;8.39;100680.38;5025215;28;20037;-76
2022/05/01 06:48:26;;;;;;;6.03;2.03;;;;;;;37.03;8.20;100681.47;5025243;28;20095;-78
2022/05/01 06:50:52;;;;;;;1.98;1.60;;;;;;;37.05;8.04;100683.03;5026664;28;20033;-77
2022/05/01 06:53:19;;;;;;;3.90;1.70;;;;;;;37.05;7.71;100682.16;5025681;28;20041;-77
2022/05/01 06:55:45;;;;;;;2.67;1.90;;;;;;;36.15;7.34;100683.44;5024412;28;20072;-79
2022/05/01 06:58:11;;;;;;;5.53;1.90;;;;;;;35.35;7.95;100673.47;5025674;28;20149;-77
2022/05/01 07:00:37;;;;;;;3.25;1.83;;;;;;;34.67;7.74;100675.63;5025043;28;20072;-78
2022/05/01 07:03:04;;;;;;;2.88;1.30;;;;;;;33.46;8.53;100682.41;5013042;28;20052;-79
2022/05/01 07:05:30;;;;;;;3.40;1.42;;;;;;;33.90;8.32;100678.41;5043223;28;20127;-80
2022/05/01 07:07:56;;;;;;;3.80;1.60;;;;;;;34.98;7.85;100659.09;5046533;28;20071;-80
2022/05/01 07:10:23;;;;;;;6.90;1.90;;;;;;;35.08;7.62;100654.47;5043817;28;20124;-78
2022/05/01 07:12:49;;;;;;;2.22;1.75;;;;;;;35.19;7.64;100671.50;5005883;28;20033;-81
2022/05/01 07:15:15;;;;;;;1.88;1.50;;;;;;;35.64;7.66;100657.00;5026508;28;21413;-81
2022/05/01 07:17:42;;;;;;;3.60;1.88;;;;;;;35.01;7.50;100657.94;5042585;28;20037;-78
2022/05/01 07:20:09;;;;;;;7.43;1.90;;;;;;;33.95;7.56;100649.16;5028788;28;20492;-79
2022/05/01 07:22:35;;;;;;;3.28;1.73;;;;;;;34.98;7.83;100659.09;5025712;28;20068;-79
2022/05/01 07:25:01;;;;;;;2.08;1.80;;;;;;;36.06;7.74;100655.47;5027751;28;20072;-78
2022/05/01 07:27:30;;;;;;;3.90;1.60;;;;;;;36.83;7.11;100635.66;5029375;28;20041;-79
2022/05/01 07:29:59;;;;;;;6.35;2.55;;;;;;;37.50;7.17;100647.50;5040074;28;20167;-79
2022/05/01 07:32:25;;;;;;;5.35;2.38;;;;;;;37.40;7.06;100653.06;5044900;28;20060;-81
2022/05/01 07:34:55;;;;;;;5.72;2.50;;;;;;;37.63;6.62;100630.66;5027999;28;20041;-81
2022/05/01 07:37:24;;;;;;;6.57;2.40;;;;;;;38.20;6.30;100620.72;5012328;28;20051;-81
2022/05/01 07:39:54;;;;;;;4.53;3.90;;;;;;;38.85;6.06;100629.63;5028604;28;20039;-79
2022/05/01 07:42:22;;;;;;;5.43;3.28;;;;;;;39.53;5.97;100607.16;5012114;28;20036;-79
2022/05/01 07:44:52;;;;;;;7.53;6.30;;;;;;;39.90;5.78;100630.81;5028779;28;20045;-78
2022/05/01 07:47:18;;;;;;;6.00;3.47;;;;;;;38.71;6.14;100640.22;5034212;28;20088;-80
2022/05/01 07:49:47;;;;;;;5.38;3.38;;;;;;;39.27;6.01;100628.28;5042096;28;20121;-80
2022/05/01 07:52:17;;;;;;;3.50;2.90;;;;;;;38.65;5.84;100624.63;5026495;28;20092;-78
2022/05/01 07:54:52;;;;;;;7.18;6.32;;;;;;;36.09;6.22;100584.75;5047585;28;20467;-81
2022/05/01 07:57:31;;;;;;;9.35;5.40;;;;;;;33.53;7.01;100512.78;5031115;28;20618;-80
2022/05/01 07:59:58;;;;;;;6.35;3.50;;;;;;;34.87;7.44;100572.81;5046698;28;20045;-83
2022/05/01 08:02:34;;;;;;;4.22;3.17;;;;;;;37.07;6.82;100594.22;5023499;28;20095;-78
2022/05/01 08:05:04;;;;;;;4.43;2.58;;;;;;;38.46;6.62;100570.72;5037265;28;20053;-79
2022/05/01 08:07:33;;;;;;;4.93;3.23;;;;;;;39.76;5.48;100601.69;5033073;28;20368;-81
2022/05/01 08:09:59;;;;;;;4.75;2.22;;;;;;;39.60;5.61;100584.50;5014760;28;20037;-80
2022/05/01 08:12:28;;;;;;;6.28;4.70;;;;;;;40.20;5.42;100556.41;5010632;28;20090;-79
2022/05/01 08:14:54;;;;;;;5.15;3.00;;;;;;;41.64;5.19;100562.00;5021155;28;20041;-79
2022/05/01 08:17:21;;;;;;;1.90;1.80;;;;;;;42.60;5.13;100604.94;5026430;28;20033;-80
2022/05/01 08:22:32;;;;;;;4.25;2.58;;;;;;;42.46;5.07;100592.28;5026625;28;20041;-81
2022/05/01 08:24:58;;;;;;;5.07;2.33;;;;;;;42.59;4.24;100567.72;4996038;28;20041;-82
2022/05/01 08:27:24;;;;;;;6.47;2.10;;;;;;;39.37;4.89;100595.41;5042213;28;20079;-78
2022/05/01 08:29:51;;;;;;;2.28;1.65;;;;;;;35.06;6.13;100597.00;5041774;28;20530;-80
2022/05/01 08:32:19;;;;;;;2.97;1.77;;;;;;;33.07;7.05;100565.59;5028859;28;20056;-79
2022/05/01 08:34:45;;;;;;;3.38;2.15;;;;;;;34.45;6.92;100514.78;5021218;28;20045;-80
2022/05/01 08:37:11;;;;;;;3.22;2.25;;;;;;;36.11;6.62;100547.53;5021857;28;20033;-79
2022/05/01 08:39:37;;;;;;;2.53;1.80;;;;;;;37.23;5.90;100570.84;5022759;28;20644;-81
2022/05/01 08:42:03;;;;;;;2.28;1.80;;;;;;;35.55;6.00;100545.19;5041819;28;20033;-81
2022/05/01 08:44:37;;;;;;;3.38;2.40;;;;;;;33.09;7.39;100572.56;4992788;28;20044;-80
2022/05/01 08:47:35;;;;;;;3.20;2.25;;;;;;;31.69;8.06;100570.47;5012375;28;20048;-79
2022/05/01 08:50:02;;;;;;;6.30;2.97;;;;;;;30.35;8.26;100576.03;5022245;28;20033;-80
2022/05/01 08:52:33;;;;;;;5.53;3.05;;;;;;;29.19;8.87;100542.09;5029798;28;20040;-80
2022/05/01 08:55:00;;;;;;;2.58;2.05;;;;;;;29.22;9.08;100557.09;5039368;28;20041;-79
2022/05/01 08:57:28;;;;;;;5.07;2.45;;;;;;;28.15;9.25;100562.16;5043493;28;20037;-79
2022/05/01 08:59:56;;;;;;;3.25;2.13;;;;;;;27.39;9.79;100530.75;5045165;28;20048;-80
2022/05/01 09:02:23;;;;;;;5.32;2.50;;;;;;;28.66;10.31;100539.75;5024920;28;20074;-83
2022/05/01 09:04:52;;;;;;;5.10;2.10;;;;;;;30.89;9.00;100514.44;5027602;28;20041;-83
2022/05/01 09:07:18;;;;;;;10.45;2.40;;;;;;;32.78;8.44;100531.34;5042952;28;20103;-80
2022/05/01 09:09:44;;;;;;;4.57;2.20;;;;;;;33.72;7.95;100527.19;5044145;28;20041;-79
2022/05/01 09:14:58;;;;;;;4.45;2.10;;;;;;;34.72;7.15;100510.34;5029607;28;20044;-79
2022/05/01 09:17:24;;;;;;;4.68;2.28;;;;;;;32.90;7.98;100473.69;5013442;28;20079;-79
2022/05/01 09:20:09;;;;;;;4.25;2.28;;;;;;;33.78;7.82;100521.22;5013944;28;20381;-79
2022/05/01 09:22:56;;;;;;;2.33;2.05;;;;;;;34.00;7.63;100517.28;5012161;28;20228;-82
2022/05/01 09:25:27;;;;;;;4.13;2.30;;;;;;;33.21;7.32;100441.19;5032882;28;20040;-78
2022/05/01 09:27:59;;;;;;;4.72;2.35;;;;;;;33.09;7.60;100512.41;5057592;28;20041;-80
2022/05/01 09:30:48;;;;;;;3.35;1.80;;;;;;;32.98;7.78;100519.66;5033576;28;20057;-80
2022/05/01 09:33:21;;;;;;;5.50;2.30;;;;;;;32.37;7.84;100502.69;5024780;28;20056;-83
2022/05/01 09:35:52;;;;;;;4.70;2.10;;;;;;;32.62;7.92;100508.53;5043019;28;20038;-82
2022/05/01 09:38:22;;;;;;;;;;;;;;;33.59;7.92;100509.50;5018265;28;20584;-79
2022/05/01 09:40:58;;;;;;;4.30;2.38;;;;;;;34.31;7.37;100513.47;5033044;28;19917;-79
2022/05/01 09:43:44;;;;;;;6.40;2.80;;;;;;;35.13;7.28;100487.25;5047436;28;20091;-81
2022/05/01 09:46:22;;;;;;;4.38;2.30;;;;;;;34.44;6.86;100497.75;5026860;28;20047;-80
2022/05/01 09:49:00;;;;;;;3.22;2.13;;;;;;;32.65;7.33;100488.56;5047700;28;20040;-80
2022/05/01 09:51:28;;;;;;;3.58;2.88;;;;;;;31.10;7.77;100501.06;5037287;28;20505;-80
2022/05/01 09:53:56;;;;;;;11.27;7.88;;;;;;;29.70;8.97;100491.78;5018113;28;20037;-83
2022/05/01 09:56:22;;;;;;;3.90;2.65;;;;;;;28.52;9.21;100417.66;5023954;28;20045;-82
2022/05/01 09:59:03;;;;;;;3.05;2.05;;;;;;;30.21;9.20;100509.22;5062723;28;20047;-81
2022/05/01 10:01:30;;;;;;;2.22;2.00;;;;;;;30.64;8.62;100495.00;5039280;28;20060;-81
2022/05/01 10:04:01;;;;;;;4.57;2.72;;;;;;;32.17;8.37;100495.53;5052858;28;20136;-83
2022/05/01 10:06:32;;;;;;;3.60;2.10;;;;;;;33.13;7.78;100463.44;5020028;28;20033;-85
2022/05/01 10:09:02;;;;;;;3.08;2.08;;;;;;;33.42;7.54;100465.25;5051554;28;20052;-82
2022/05/01 10:11:29;;;;;;;3.45;1.83;;;;;;;34.33;7.55;100484.44;5031247;28;20033;-81
2022/05/01 10:13:55;;;;;;;5.53;2.15;;;;;;;33.96;7.67;100469.19;5018955;28;20036;-83
2022/05/01 10:16:25;;;;;;;6.30;2.20;;;;;;;33.73;7.09;100470.41;5046465;28;20052;-83
2022/05/01 10:18:52;;;;;;;5.72;2.30;;;;;;;32.94;7.47;100450.88;5037077;28;20044;-81
2022/05/01 10:21:20;;;;;;;5.90;2.05;;;;;;;32.28;7.64;100431.69;5017151;28;20037;-82
2022/05/01 10:23:49;;;;;;;3.65;2.75;;;;;;;32.63;7.68;100471.69;5037867;28;20544;-81
2022/05/01 10:26:29;;;;;;;3.95;3.42;;;;;;;32.30;8.05;100442.34;5005294;28;20041;-82
2022/05/01 10:29:14;;;;;;;6.35;3.25;;;;;;;31.95;7.95;100457.94;5057264;28;20060;-78
2022/05/01 10:32:21;;;;;;;5.60;3.28;;;;;;;29.11;8.91;100478.38;5059094;28;20059;-81
2022/05/01 10:34:49;;;;;;;5.30;2.33;;;;;;;26.96;9.29;100477.56;5059624;28;20037;-79
2022/05/01 10:37:43;;;;;;;8.05;3.67;;;;;;;25.74;10.06;100475.53;5027088;28;20114;-78
2022/05/01 10:40:10;;;;;;;10.15;7.38;;;;;;;25.17;10.59;100472.69;5047969;28;20155;-80
2022/05/01 10:42:45;;;;;;;5.75;3.60;;;;;;;24.24;11.22;100421.25;5066626;28;20048;-82
2022/05/01 10:45:22;;;;;;;5.20;2.15;;;;;;;24.07;11.63;100468.22;5013194;28;20037;-80
2022/05/01 10:47:49;;;;;;;7.75;5.05;;;;;;;24.01;11.81;100457.94;5048396;28;20049;-82
2022/05/01 10:50:23;;;;;;;16.88;9.07;;;;;;;23.98;11.60;100443.00;5053863;28;20043;-81
2022/05/01 10:53:09;;;;;;;6.28;2.90;;;;;;;23.25;12.27;100459.28;5014768;28;20049;-83
2022/05/01 10:55:51;;;;;;;24.83;16.95;;;;;;;22.50;12.70;100452.28;5040770;28;20102;-81
2022/05/01 10:58:31;;;;;;;4.03;2.53;;;;;;;21.86;13.57;100445.53;5027918;28;20139;-82
2022/05/01 11:01:07;;;;;;;2.78;2.20;;;;;;;21.20;13.54;100447.53;5031152;28;20049;-80
2022/05/01 11:03:50;;;;;;;4.40;2.28;;;;;;;20.64;13.96;100446.31;5041645;28;20470;-83
2022/05/01 11:06:20;;;;;;;7.47;2.30;;;;;;;19.83;14.46;100392.13;5053371;28;20045;-79
2022/05/01 11:08:47;;;;;;;7.20;2.10;;;;;;;19.47;14.49;100373.25;5018742;28;20032;-81
2022/05/01 11:11:13;;;;;;;2.97;2.08;;;;;;;19.68;14.55;100445.53;5027737;28;20091;-80
2022/05/01 11:13:41;;;;;;;4.38;2.05;;;;;;;19.39;14.61;100416.63;5032681;28;20077;-81
2022/05/01 11:16:09;;;;;;;6.82;2.10;;;;;;;18.89;14.94;100406.88;5046815;28;20073;-82
2022/05/01 11:18:42;;;;;;;4.47;2.05;;;;;;;18.90;15.12;100431.50;5001114;28;20135;-83
2022/05/01 11:21:19;;;;;;;6.25;2.40;;;;;;;18.65;15.32;100441.03;5014857;28;20053;-82
2022/05/01 11:23:47;;;;;;;7.40;2.40;;;;;;;18.08;15.70;100384.03;5002348;28;20036;-81
2022/05/01 11:26:15;;;;;;;8.93;4.90;;;;;;;18.35;15.87;100438.50;5026067;28;20098;-81
2022/05/01 11:28:50;;;;;;;9.65;5.07;;;;;;;18.43;16.35;100432.09;5010128;28;20049;-82
2022/05/01 11:31:35;;;;;;;42.92;29.15;;;;;;;18.59;16.43;100432.47;5043698;28;20091;-84
2022/05/01 11:34:22;;;;;;;22.20;12.85;;;;;;;18.75;16.35;100424.94;5046422;28;20048;-82
2022/05/01 11:36:57;;;;;;;9.45;5.45;;;;;;;18.89;16.42;100421.84;5032604;28;20045;-82
2022/05/01 11:39:56;;;;;;;8.60;2.92;;;;;;;18.86;16.12;100414.03;4996323;28;20041;-82
2022/05/01 11:42:26;;;;;;;4.32;2.13;;;;;;;18.72;16.07;100438.22;5004522;28;20048;-81
2022/05/01 11:44:57;;;;;;;4.93;1.98;;;;;;;18.44;15.99;100416.25;5046018;28;20095;-81
2022/05/01 11:47:30;;;;;;;8.32;2.30;;;;;;;18.05;16.48;100424.50;5019147;28;20036;-82
2022/05/01 11:49:56;;;;;;;5.85;2.80;;;;;;;17.45;16.52;100401.59;5027796;28;20159;-81
2022/05/01 11:52:24;;;;;;;6.25;2.33;;;;;;;17.26;16.90;100418.78;5028371;28;20112;-81
2022/05/01 11:54:58;;;;;;;3.97;2.50;;;;;;;17.13;17.02;100413.84;5021440;28;20117;-81
2022/05/01 12:03:29;;;;;;;3.88;3.10;;;;;;;16.51;17.47;100336.56;5010208;28;20038;-81
2022/05/01 12:05:59;;;;;;;7.18;3.97;;;;;;;16.59;17.56;100364.41;5031012;28;20189;-79
2022/05/01 12:08:25;;;;;;;4.43;3.10;;;;;;;16.90;17.60;100382.88;5016785;28;20100;-80
2022/05/01 12:10:51;;;;;;;5.35;2.38;;;;;;;17.22;17.49;100404.00;5033563;28;20044;-81
2022/05/01 12:13:28;;;;;;;2.92;2.22;;;;;;;17.01;17.41;100378.22;5045989;28;20028;-80
2022/05/01 12:15:58;;;;;;;9.38;2.95;;;;;;;17.01;17.32;100393.16;5041716;28;20053;-81
2022/05/01 12:18:24;;;;;;;4.05;2.13;;;;;;;16.89;17.31;100385.53;5043303;28;20047;-80
2022/05/01 12:20:50;;;;;;;7.78;2.28;;;;;;;16.76;17.18;100388.47;5032167;28;20045;-80
2022/05/01 12:23:21;;;;;;;3.50;2.10;;;;;;;16.61;17.31;100373.97;5026704;28;21123;-82
2022/05/01 12:25:54;;;;;;;4.38;2.20;;;;;;;16.52;17.19;100372.41;5012393;28;20476;-80
2022/05/01 12:28:27;;;;;;;5.65;2.67;;;;;;;16.23;17.23;100316.22;5015363;28;20567;-82
2022/05/01 12:30:58;;;;;;;21.45;3.22;;;;;;;16.39;17.41;100384.97;5027979;28;20057;-82
2022/05/01 12:33:24;;;;;;;10.02;5.35;;;;;;;16.31;17.77;100371.19;5032969;28;20075;-82
2022/05/01 12:35:57;;;;;;;11.00;5.40;;;;;;;16.46;17.64;100387.47;4994343;28;20041;-84
2022/05/01 12:38:28;;;;;;;6.55;3.17;;;;;;;16.13;17.88;100356.72;5029075;28;20491;-79
2022/05/01 12:43:51;;;;;;;8.65;4.53;;;;;;;15.54;18.36;100334.38;5041380;28;20052;-81
2022/05/01 12:46:25;;;;;;;11.95;5.40;;;;;;;15.60;18.27;100373.56;5046295;28;20044;-82
2022/05/01 12:48:51;;;;;;;6.88;2.78;;;;;;;15.45;18.31;100337.16;5043693;28;20104;-84
2022/05/01 12:51:18;;;;;;;6.75;2.95;;;;;;;15.74;18.44;100367.19;5046512;28;20072;-77
2022/05/01 12:53:45;;;;;;;5.45;2.92;;;;;;;15.71;18.39;100360.22;5015289;28;20045;-83
2022/05/01 12:56:22;;;;;;;3.28;1.85;;;;;;;15.72;18.20;100355.84;5026209;28;20048;-79
2022/05/01 12:58:52;;;;;;;6.93;2.17;;;;;;;15.43;18.27;100312.72;5026283;28;20045;-79
2022/05/01 13:01:27;;;;;;;4.18;2.47;;;;;;;15.42;18.19;100316.25;5013359;28;20124;-83
2022/05/01 13:03:54;;;;;;;6.45;2.47;;;;;;;15.45;18.24;100324.06;5046556;28;20041;-82
2022/05/01 13:06:26;;;;;;;10.63;7.18;;;;;;;15.20;18.48;100300.94;5037646;28;20037;-82
2022/05/01 13:08:59;;;;;;;9.93;5.45;;;;;;;15.41;18.73;100348.59;5039758;28;20093;-81
2022/05/01 13:11:37;;;;;;;13.80;7.30;;;;;;;15.46;18.63;100354.63;5036543;28;20045;-82
2022/05/01 13:14:11;;;;;;;28.00;19.00;;;;;;;15.46;18.66;100344.13;5053926;28;20041;-82
2022/05/01 13:16:45;;;;;;;16.27;7.57;;;;;;;15.31;18.95;100312.09;5018669;28;20518;-84
2022/05/01 13:19:14;;;;;;;15.20;9.57;;;;;;;15.56;18.83;100350.91;5020660;28;20119;-82
2022/05/01 13:21:49;;;;;;;6.68;4.47;;;;;;;15.31;18.68;100303.34;5036033;28;20033;-80
2022/05/01 13:24:16;;;;;;;7.07;3.90;;;;;;;15.25;18.94;100300.84;5054779;28;20179;-81
2022/05/01 13:26:43;;;;;;;4.95;2.75;;;;;;;15.31;18.89;100340.94;5017671;28;20043;-79
2022/05/01 13:29:11;;;;;;;3.63;1.95;;;;;;;15.18;19.07;100318.47;5022381;28;20036;-81
2022/05/01 13:31:40;;;;;;;2.78;1.98;;;;;;;15.23;19.02;100326.25;5047127;28;20052;-80
2022/05/01 13:34:06;;;;;;;4.78;2.05;;;;;;;15.21;18.83;100328.91;5042793;28;20045;-80
2022/05/01 13:36:33;;;;;;;10.27;6.03;;;;;;;15.30;18.95;100327.84;5024045;28;20395;-77
2022/05/01 13:39:03;;;;;;;8.90;6.03;;;;;;;15.42;18.91;100303.13;5030781;28;20136;-79
2022/05/01 13:47:00;;;;;;;6.40;4.10;;;;;;;15.79;18.94;100312.81;5044284;28;20039;-79
2022/05/01 13:49:26;;;;;;;6.10;3.38;;;;;;;15.64;18.89;100306.19;5012013;28;20049;-78
2022/05/01 13:51:53;;;;;;;3.90;2.25;;;;;;;15.29;19.05;100287.69;5029021;28;20077;-79
2022/05/01 13:54:26;;;;;;;5.03;2.30;;;;;;;15.26;18.83;100310.44;5029684;28;20045;-80
2022/05/01 13:56:52;;;;;;;3.10;2.30;;;;;;;15.03;19.04;100314.38;5014329;28;20033;-80
2022/05/01 13:59:20;;;;;;;6.22;2.42;;;;;;;14.49;18.83;100263.84;5031356;28;20045;-78
2022/05/01 14:01:56;;;;;;;6.13;3.00;;;;;;;14.48;19.14;100295.25;5036122;28;20044;-79
2022/05/01 14:04:26;;;;;;;5.38;2.10;;;;;;;14.11;19.23;100260.13;5042002;28;20041;-81
2022/05/01 14:07:00;;;;;;;3.58;1.88;;;;;;;14.09;19.33;100264.50;4999887;28;20102;-79
2022/05/01 14:09:29;;;;;;;5.60;3.13;;;;;;;14.00;19.21;100263.75;5029558;28;20049;-80
2022/05/01 14:11:56;;;;;;;5.22;3.28;;;;;;;14.20;19.47;100288.72;5031922;28;20113;-77
2022/05/01 14:14:23;;;;;;;3.65;2.20;;;;;;;14.20;19.62;100285.28;5028716;28;20151;-80
2022/05/01 14:16:51;;;;;;;5.70;2.28;;;;;;;14.39;19.48;100278.84;5035729;28;20325;-79
2022/05/01 14:19:21;;;;;;;3.50;2.45;;;;;;;14.52;19.46;100286.47;5061057;28;20043;-79
2022/05/01 14:21:47;;;;;;;3.35;1.80;;;;;;;14.40;19.28;100254.38;5019254;28;20504;-81
2022/05/01 14:24:15;;;;;;;7.82;3.08;;;;;;;14.49;19.36;100271.69;5030755;28;20045;-80